Sim-Planet VA

Sim-Planet Nouvel Horizon. By: Anthony Pay
Since 2020.




 METAR ET TAF INFORMATION
METAR FOR LFMN
ADDS - METARS form results

(1857 UTC 28 January 2022)
Data provider http://aviationweather.gov/metar/data/
 
METAR text: LFMN 281830Z 32008KT CAVOK 10/06 Q1027 NOSIG
Conditions at: LFMN (NICE/COTE D'AZUR, FR) observed 1830 UTC 28 January 2022
Temperature: 10.0°C (50°F)
Dewpoint: 6.0°C (43°F) [RH = 76%]
Pressure (altimeter): 30.32 inches Hg (1027.0 mb)
Winds: from the NW (320 degrees) at 9 MPH (8 knots; 4.1 m/s)
Visibility: 6 or more miles (10+ km)
Ceiling: ceiling and visibility are OK
Clouds: unknown
Weather: no significant weather observed at this time

METAR text: LFMN 281800Z 32006KT CAVOK 10/06 Q1027 NOSIG
Conditions at: LFMN (NICE/COTE D'AZUR, FR) observed 1800 UTC 28 January 2022
Temperature: 10.0°C (50°F)
Dewpoint: 6.0°C (43°F) [RH = 76%]
Pressure (altimeter): 30.32 inches Hg (1027.0 mb)
Winds: from the NW (320 degrees) at 7 MPH (6 knots; 3.1 m/s)
Visibility: 6 or more miles (10+ km)
Ceiling: ceiling and visibility are OK
Clouds: unknown
Weather: no significant weather observed at this time

Forecast for: LFMN (NICE/COTE D'AZUR, FR)
Text: TAF LFMN 281400Z 2815/2921 VRB05KT CAVOK
Forecast period: 1500 UTC 28 January 2022 to 2100 UTC 29 January 2022
Forecast type: FROM: standard forecast or significant change
Winds: variable direction winds at 6 MPH (5 knots; 2.6 m/s)
Visibility: 6 or more miles (10+ km)
Ceiling: unknown
Clouds: missing
Weather: NSW  (no significant weather)

 AÉROPORT DE AÉROPORT

 INFORMATIONS DE PISTE
Piste 04L Longueur de la piste 8995 ft Largeur de la piste 148 ft
Élévation de la piste 10 ft Seuil de la piste déplacés 0 ft Runway heading 45
Piste 22R Longueur de la piste 8995 ft Largeur de la piste 148 ft
Élévation de la piste 10 ft Seuil de la piste déplacés 575 ft Runway heading 225
Piste 04R Longueur de la piste 9712 ft Largeur de la piste 148 ft
Élévation de la piste 10 ft Seuil de la piste déplacés 0 ft Runway heading 45
Piste 22L Longueur de la piste 9712 ft Largeur de la piste 148 ft
Élévation de la piste 12 ft Seuil de la piste déplacés 0 ft Runway heading 225

 AÉROPORT FRÉQUENCES
Type A/D Nom NICE APP Féquence 124.175 MHZ
Type ATIS Nom NICE ATIS Féquence 129.6 MHZ
Type GND Nom NICE GND Féquence 121.775 MHZ
Type TWR Nom NICE TWR Féquence 118.7 MHZ

 SIDA DE NAVIGATION
Type VOR-DME Nom Nice Cote D Azur Féquence 109650 KHZ
Type VOR-DME Nom Cagnes Sur Mer Féquence 109200 KHZ
Type NDB Nom Nice Féquence 399 KHZ
Type VOR-DME Nom Nice Féquence 112400 KHZ

Nos Partenaires